CEE2 weather

Elephant Enterprises Inc. Heliport
Calgary, Alberta, Canada

Public forecast

Using degrees Celsius for public forecast. Weather courtesy of forecast.io.

METAR (pilot weather report)

Closest report is Calgary / Springbank Airport, 3.0 nm (5.6 km) WSW. Retrieved 2019/06/18 10:00 UTC (1 minute ago):

CYBW 181000Z AUTO 30004KT 9SM BKN200 OVC220 08/07 A2986 RMK SLP111 DENSITY ALT 4100FT

TAF (pilot weather forecast)

Forecast is more than 12 hours old.

Closest forecast is Calgary / Springbank Airport, 3.0 nm (5.6 km) WSW. Retrieved 2019/06/17 00:00 UTC (1 day ago):

TAF CYBW 172338Z 1800/1804 30005KT P6SM SCT070 BKN250 TEMPO 1800/1802 P6SM VCSH BKN060 FM180200 17008KT P6SM SCT120 BKN220 RMK FCST BASED ON AUTO OBS. NXT FCST WILL BE ISSUED AT 181145Z